sensor_id;sensor_type;location;lat;lon;timestamp;P1;durP1;ratioP1;P2;durP2;ratioP2
62925;SDS011;55732;52.248;-0.844;2023-03-23T00:01:02;4.80;;;1.50;;
62925;SDS011;55732;52.248;-0.844;2023-03-23T00:03:29;8.10;;;1.90;;
62925;SDS011;55732;52.248;-0.844;2023-03-23T00:05:59;5.30;;;1.60;;
62925;SDS011;55732;52.248;-0.844;2023-03-23T00:08:32;6.50;;;1.50;;
62925;SDS011;55732;52.248;-0.844;2023-03-23T00:11:06;5.10;;;1.80;;
62925;SDS011;55732;52.248;-0.844;2023-03-23T00:13:32;9.70;;;1.90;;
62925;SDS011;55732;52.248;-0.844;2023-03-23T00:15:58;6.50;;;1.90;;
62925;SDS011;55732;52.248;-0.844;2023-03-23T00:18:24;7.40;;;2.10;;
62925;SDS011;55732;52.248;-0.844;2023-03-23T00:20:51;7.10;;;1.80;;
62925;SDS011;55732;52.248;-0.844;2023-03-23T00:23:19;6.00;;;1.70;;
62925;SDS011;55732;52.248;-0.844;2023-03-23T00:25:48;10.50;;;2.20;;
62925;SDS011;55732;52.248;-0.844;2023-03-23T00:28:18;7.80;;;2.40;;
62925;SDS011;55732;52.248;-0.844;2023-03-23T00:31:02;8.90;;;2.00;;
62925;SDS011;55732;52.248;-0.844;2023-03-23T00:33:32;9.90;;;2.20;;
62925;SDS011;55732;52.248;-0.844;2023-03-23T00:36:06;12.30;;;2.70;;
62925;SDS011;55732;52.248;-0.844;2023-03-23T00:38:33;6.70;;;2.30;;
62925;SDS011;55732;52.248;-0.844;2023-03-23T00:41:00;11.00;;;2.90;;
62925;SDS011;55732;52.248;-0.844;2023-03-23T00:43:27;12.10;;;2.40;;
62925;SDS011;55732;52.248;-0.844;2023-03-23T00:45:54;11.00;;;2.50;;
62925;SDS011;55732;52.248;-0.844;2023-03-23T00:48:21;11.50;;;2.30;;
62925;SDS011;55732;52.248;-0.844;2023-03-23T00:50:49;6.50;;;1.90;;
62925;SDS011;55732;52.248;-0.844;2023-03-23T00:53:16;10.60;;;2.10;;
62925;SDS011;55732;52.248;-0.844;2023-03-23T00:55:42;11.10;;;2.30;;
62925;SDS011;55732;52.248;-0.844;2023-03-23T00:58:10;10.50;;;2.20;;
62925;SDS011;55732;52.248;-0.844;2023-03-23T01:00:36;13.00;;;2.60;;
62925;SDS011;55732;52.248;-0.844;2023-03-23T01:03:03;9.80;;;2.40;;
62925;SDS011;55732;52.248;-0.844;2023-03-23T01:05:29;12.70;;;2.50;;
62925;SDS011;55732;52.248;-0.844;2023-03-23T01:08:00;10.60;;;2.40;;
62925;SDS011;55732;52.248;-0.844;2023-03-23T01:10:26;10.10;;;2.20;;
62925;SDS011;55732;52.248;-0.844;2023-03-23T01:12:52;19.10;;;2.80;;
62925;SDS011;55732;52.248;-0.844;2023-03-23T01:15:19;12.30;;;2.40;;
62925;SDS011;55732;52.248;-0.844;2023-03-23T01:17:45;16.10;;;2.40;;
62925;SDS011;55732;52.248;-0.844;2023-03-23T01:20:12;9.20;;;2.70;;
62925;SDS011;55732;52.248;-0.844;2023-03-23T01:22:39;14.10;;;3.00;;
62925;SDS011;55732;52.248;-0.844;2023-03-23T01:25:06;13.80;;;2.40;;
62925;SDS011;55732;52.248;-0.844;2023-03-23T01:27:33;13.20;;;2.90;;
62925;SDS011;55732;52.248;-0.844;2023-03-23T01:29:59;13.90;;;2.70;;
62925;SDS011;55732;52.248;-0.844;2023-03-23T01:32:24;17.10;;;2.60;;
62925;SDS011;55732;52.248;-0.844;2023-03-23T01:34:50;16.30;;;3.40;;
62925;SDS011;55732;52.248;-0.844;2023-03-23T01:37:15;12.40;;;2.70;;
62925;SDS011;55732;52.248;-0.844;2023-03-23T01:39:41;12.20;;;2.40;;
62925;SDS011;55732;52.248;-0.844;2023-03-23T01:42:10;10.10;;;2.10;;
62925;SDS011;55732;52.248;-0.844;2023-03-23T01:47:02;10.60;;;2.10;;
62925;SDS011;55732;52.248;-0.844;2023-03-23T01:49:28;7.60;;;1.80;;
62925;SDS011;55732;52.248;-0.844;2023-03-23T01:51:59;10.30;;;2.40;;
62925;SDS011;55732;52.248;-0.844;2023-03-23T01:54:28;13.20;;;2.20;;
62925;SDS011;55732;52.248;-0.844;2023-03-23T01:57:02;8.10;;;2.70;;
62925;SDS011;55732;52.248;-0.844;2023-03-23T01:59:32;8.60;;;2.50;;
62925;SDS011;55732;52.248;-0.844;2023-03-23T02:02:00;9.40;;;1.70;;
62925;SDS011;55732;52.248;-0.844;2023-03-23T02:04:27;13.10;;;2.50;;
62925;SDS011;55732;52.248;-0.844;2023-03-23T02:09:22;8.60;;;2.10;;
62925;SDS011;55732;52.248;-0.844;2023-03-23T02:11:50;8.60;;;2.00;;
62925;SDS011;55732;52.248;-0.844;2023-03-23T02:14:17;11.30;;;2.30;;
62925;SDS011;55732;52.248;-0.844;2023-03-23T02:35:14;8.80;;;2.30;;
62925;SDS011;55732;52.248;-0.844;2023-03-23T02:37:50;6.70;;;2.00;;
62925;SDS011;55732;52.248;-0.844;2023-03-23T02:40:25;11.20;;;2.10;;
62925;SDS011;55732;52.248;-0.844;2023-03-23T02:42:56;14.50;;;2.20;;
62925;SDS011;55732;52.248;-0.844;2023-03-23T02:45:24;7.80;;;2.10;;
62925;SDS011;55732;52.248;-0.844;2023-03-23T02:47:54;12.20;;;2.30;;
62925;SDS011;55732;52.248;-0.844;2023-03-23T02:50:22;11.40;;;2.70;;
62925;SDS011;55732;52.248;-0.844;2023-03-23T02:52:52;8.30;;;2.00;;
62925;SDS011;55732;52.248;-0.844;2023-03-23T02:55:20;11.40;;;2.70;;
62925;SDS011;55732;52.248;-0.844;2023-03-23T02:57:50;12.40;;;2.90;;
62925;SDS011;55732;52.248;-0.844;2023-03-23T03:00:18;12.90;;;2.60;;
62925;SDS011;55732;52.248;-0.844;2023-03-23T03:02:44;9.30;;;2.20;;
62925;SDS011;55732;52.248;-0.844;2023-03-23T03:11:15;14.20;;;2.60;;
62925;SDS011;55732;52.248;-0.844;2023-03-23T03:21:22;15.20;;;2.90;;
62925;SDS011;55732;52.248;-0.844;2023-03-23T03:23:52;12.60;;;2.60;;
62925;SDS011;55732;52.248;-0.844;2023-03-23T03:26:21;9.70;;;2.50;;
62925;SDS011;55732;52.248;-0.844;2023-03-23T03:28:51;10.60;;;2.70;;
62925;SDS011;55732;52.248;-0.844;2023-03-23T03:31:19;14.40;;;2.90;;
62925;SDS011;55732;52.248;-0.844;2023-03-23T03:33:48;12.10;;;2.40;;
62925;SDS011;55732;52.248;-0.844;2023-03-23T03:36:15;8.90;;;2.40;;
62925;SDS011;55732;52.248;-0.844;2023-03-23T03:38:43;21.00;;;3.10;;
62925;SDS011;55732;52.248;-0.844;2023-03-23T03:41:12;14.70;;;3.50;;
62925;SDS011;55732;52.248;-0.844;2023-03-23T03:43:37;13.00;;;2.80;;
62925;SDS011;55732;52.248;-0.844;2023-03-23T03:46:03;10.20;;;2.40;;
62925;SDS011;55732;52.248;-0.844;2023-03-23T03:48:28;11.00;;;2.80;;
62925;SDS011;55732;52.248;-0.844;2023-03-23T03:50:54;13.70;;;2.70;;
62925;SDS011;55732;52.248;-0.844;2023-03-23T03:53:24;15.20;;;2.70;;
62925;SDS011;55732;52.248;-0.844;2023-03-23T03:55:50;14.40;;;3.50;;
62925;SDS011;55732;52.248;-0.844;2023-03-23T03:58:20;13.80;;;2.30;;
62925;SDS011;55732;52.248;-0.844;2023-03-23T04:00:47;12.30;;;2.30;;
62925;SDS011;55732;52.248;-0.844;2023-03-23T04:03:13;17.60;;;3.30;;
62925;SDS011;55732;52.248;-0.844;2023-03-23T04:05:40;15.50;;;3.80;;
62925;SDS011;55732;52.248;-0.844;2023-03-23T04:08:06;16.30;;;2.60;;
62925;SDS011;55732;52.248;-0.844;2023-03-23T04:10:32;13.70;;;2.60;;
62925;SDS011;55732;52.248;-0.844;2023-03-23T04:12:58;15.90;;;3.00;;
62925;SDS011;55732;52.248;-0.844;2023-03-23T04:15:24;15.70;;;2.50;;
62925;SDS011;55732;52.248;-0.844;2023-03-23T04:17:51;18.40;;;3.30;;
62925;SDS011;55732;52.248;-0.844;2023-03-23T04:20:17;16.70;;;3.50;;
62925;SDS011;55732;52.248;-0.844;2023-03-23T04:22:43;20.90;;;3.10;;
62925;SDS011;55732;52.248;-0.844;2023-03-23T04:25:11;12.60;;;2.50;;
62925;SDS011;55732;52.248;-0.844;2023-03-23T04:27:40;19.30;;;3.30;;
62925;SDS011;55732;52.248;-0.844;2023-03-23T04:30:08;15.80;;;2.80;;
62925;SDS011;55732;52.248;-0.844;2023-03-23T04:32:37;20.00;;;3.10;;
62925;SDS011;55732;52.248;-0.844;2023-03-23T04:35:06;17.10;;;2.80;;
62925;SDS011;55732;52.248;-0.844;2023-03-23T04:37:34;18.80;;;3.60;;
62925;SDS011;55732;52.248;-0.844;2023-03-23T04:40:00;18.70;;;3.20;;
62925;SDS011;55732;52.248;-0.844;2023-03-23T04:42:29;18.90;;;3.50;;
62925;SDS011;55732;52.248;-0.844;2023-03-23T04:44:59;12.10;;;2.90;;
62925;SDS011;55732;52.248;-0.844;2023-03-23T04:47:25;14.70;;;3.30;;
62925;SDS011;55732;52.248;-0.844;2023-03-23T04:49:57;15.90;;;3.30;;
62925;SDS011;55732;52.248;-0.844;2023-03-23T04:52:24;13.40;;;3.10;;
62925;SDS011;55732;52.248;-0.844;2023-03-23T04:54:51;11.30;;;2.50;;
62925;SDS011;55732;52.248;-0.844;2023-03-23T04:57:17;14.00;;;3.00;;
62925;SDS011;55732;52.248;-0.844;2023-03-23T04:59:43;16.50;;;3.30;;
62925;SDS011;55732;52.248;-0.844;2023-03-23T05:02:13;17.60;;;3.20;;
62925;SDS011;55732;52.248;-0.844;2023-03-23T05:04:39;16.20;;;3.00;;
62925;SDS011;55732;52.248;-0.844;2023-03-23T05:07:06;13.80;;;3.20;;
62925;SDS011;55732;52.248;-0.844;2023-03-23T05:09:32;15.20;;;3.00;;
62925;SDS011;55732;52.248;-0.844;2023-03-23T05:12:09;15.00;;;2.90;;
62925;SDS011;55732;52.248;-0.844;2023-03-23T05:14:35;17.70;;;3.10;;
62925;SDS011;55732;52.248;-0.844;2023-03-23T05:17:01;16.60;;;3.20;;
62925;SDS011;55732;52.248;-0.844;2023-03-23T05:19:28;23.30;;;3.70;;
62925;SDS011;55732;52.248;-0.844;2023-03-23T05:21:54;13.00;;;2.40;;
62925;SDS011;55732;52.248;-0.844;2023-03-23T05:24:22;21.60;;;3.30;;
62925;SDS011;55732;52.248;-0.844;2023-03-23T05:26:49;13.70;;;3.40;;
62925;SDS011;55732;52.248;-0.844;2023-03-23T05:31:42;16.90;;;3.40;;
62925;SDS011;55732;52.248;-0.844;2023-03-23T05:34:07;17.10;;;3.10;;
62925;SDS011;55732;52.248;-0.844;2023-03-23T05:36:33;16.80;;;3.10;;
62925;SDS011;55732;52.248;-0.844;2023-03-23T05:38:59;17.20;;;3.60;;
62925;SDS011;55732;52.248;-0.844;2023-03-23T05:41:28;18.30;;;3.20;;
62925;SDS011;55732;52.248;-0.844;2023-03-23T05:43:54;19.10;;;3.70;;
62925;SDS011;55732;52.248;-0.844;2023-03-23T05:46:20;13.80;;;3.20;;
62925;SDS011;55732;52.248;-0.844;2023-03-23T05:48:45;15.20;;;3.00;;
62925;SDS011;55732;52.248;-0.844;2023-03-23T05:51:11;15.40;;;3.70;;
62925;SDS011;55732;52.248;-0.844;2023-03-23T05:53:37;17.90;;;3.70;;
62925;SDS011;55732;52.248;-0.844;2023-03-23T05:56:02;20.40;;;3.80;;
62925;SDS011;55732;52.248;-0.844;2023-03-23T05:58:29;22.20;;;3.30;;
62925;SDS011;55732;52.248;-0.844;2023-03-23T06:00:54;18.60;;;3.10;;
62925;SDS011;55732;52.248;-0.844;2023-03-23T06:03:20;18.30;;;3.90;;
62925;SDS011;55732;52.248;-0.844;2023-03-23T06:05:47;16.20;;;3.30;;
62925;SDS011;55732;52.248;-0.844;2023-03-23T06:08:13;17.30;;;3.20;;
62925;SDS011;55732;52.248;-0.844;2023-03-23T06:10:39;20.10;;;3.60;;
62925;SDS011;55732;52.248;-0.844;2023-03-23T06:13:04;19.10;;;3.20;;
62925;SDS011;55732;52.248;-0.844;2023-03-23T06:15:30;21.20;;;3.30;;
62925;SDS011;55732;52.248;-0.844;2023-03-23T06:18:03;21.90;;;4.40;;
62925;SDS011;55732;52.248;-0.844;2023-03-23T06:20:30;16.00;;;3.00;;
62925;SDS011;55732;52.248;-0.844;2023-03-23T06:22:55;14.20;;;3.30;;
62925;SDS011;55732;52.248;-0.844;2023-03-23T06:25:21;19.10;;;3.90;;
62925;SDS011;55732;52.248;-0.844;2023-03-23T06:27:48;22.90;;;3.80;;
62925;SDS011;55732;52.248;-0.844;2023-03-23T06:30:13;16.50;;;4.00;;
62925;SDS011;55732;52.248;-0.844;2023-03-23T06:32:42;18.90;;;4.20;;
62925;SDS011;55732;52.248;-0.844;2023-03-23T06:35:11;17.70;;;3.70;;
62925;SDS011;55732;52.248;-0.844;2023-03-23T06:37:37;17.20;;;3.90;;
62925;SDS011;55732;52.248;-0.844;2023-03-23T06:40:03;18.40;;;3.60;;
62925;SDS011;55732;52.248;-0.844;2023-03-23T06:42:33;18.10;;;3.90;;
62925;SDS011;55732;52.248;-0.844;2023-03-23T06:44:59;16.60;;;3.90;;
62925;SDS011;55732;52.248;-0.844;2023-03-23T06:47:26;18.80;;;4.00;;
62925;SDS011;55732;52.248;-0.844;2023-03-23T06:49:55;15.20;;;4.20;;
62925;SDS011;55732;52.248;-0.844;2023-03-23T06:52:21;16.30;;;3.80;;
62925;SDS011;55732;52.248;-0.844;2023-03-23T06:54:51;16.80;;;3.70;;
62925;SDS011;55732;52.248;-0.844;2023-03-23T06:57:17;16.00;;;4.00;;
62925;SDS011;55732;52.248;-0.844;2023-03-23T06:59:43;13.00;;;4.10;;
62925;SDS011;55732;52.248;-0.844;2023-03-23T07:02:13;12.70;;;4.10;;
62925;SDS011;55732;52.248;-0.844;2023-03-23T07:04:39;15.00;;;4.00;;
62925;SDS011;55732;52.248;-0.844;2023-03-23T07:07:07;13.50;;;3.70;;
62925;SDS011;55732;52.248;-0.844;2023-03-23T07:09:34;12.00;;;3.40;;
62925;SDS011;55732;52.248;-0.844;2023-03-23T07:12:00;15.00;;;4.20;;
62925;SDS011;55732;52.248;-0.844;2023-03-23T07:14:26;12.90;;;3.60;;
62925;SDS011;55732;52.248;-0.844;2023-03-23T07:16:51;16.40;;;4.50;;
62925;SDS011;55732;52.248;-0.844;2023-03-23T07:19:18;13.70;;;4.00;;
62925;SDS011;55732;52.248;-0.844;2023-03-23T07:21:44;15.50;;;4.00;;
62925;SDS011;55732;52.248;-0.844;2023-03-23T07:24:10;16.90;;;3.90;;
62925;SDS011;55732;52.248;-0.844;2023-03-23T07:26:39;13.10;;;3.70;;
62925;SDS011;55732;52.248;-0.844;2023-03-23T07:29:06;16.80;;;4.80;;
62925;SDS011;55732;52.248;-0.844;2023-03-23T07:31:32;16.60;;;4.10;;
62925;SDS011;55732;52.248;-0.844;2023-03-23T07:33:57;16.50;;;4.50;;
62925;SDS011;55732;52.248;-0.844;2023-03-23T07:36:23;18.20;;;4.90;;
62925;SDS011;55732;52.248;-0.844;2023-03-23T07:38:48;14.90;;;4.60;;
62925;SDS011;55732;52.248;-0.844;2023-03-23T07:41:14;17.20;;;4.80;;
62925;SDS011;55732;52.248;-0.844;2023-03-23T07:43:39;21.20;;;5.00;;
62925;SDS011;55732;52.248;-0.844;2023-03-23T07:46:06;16.40;;;4.40;;
62925;SDS011;55732;52.248;-0.844;2023-03-23T07:48:32;12.20;;;4.50;;
62925;SDS011;55732;52.248;-0.844;2023-03-23T07:50:58;16.00;;;4.80;;
62925;SDS011;55732;52.248;-0.844;2023-03-23T07:53:24;13.40;;;4.60;;
62925;SDS011;55732;52.248;-0.844;2023-03-23T07:55:49;15.20;;;4.20;;
62925;SDS011;55732;52.248;-0.844;2023-03-23T07:58:15;14.50;;;5.00;;
62925;SDS011;55732;52.248;-0.844;2023-03-23T08:00:45;16.80;;;4.90;;
62925;SDS011;55732;52.248;-0.844;2023-03-23T08:03:13;12.90;;;4.30;;
62925;SDS011;55732;52.248;-0.844;2023-03-23T08:05:39;16.80;;;5.70;;
62925;SDS011;55732;52.248;-0.844;2023-03-23T08:08:07;13.60;;;4.80;;
62925;SDS011;55732;52.248;-0.844;2023-03-23T08:10:34;15.10;;;5.00;;
62925;SDS011;55732;52.248;-0.844;2023-03-23T08:13:00;13.70;;;4.70;;
62925;SDS011;55732;52.248;-0.844;2023-03-23T08:15:26;16.30;;;4.70;;
62925;SDS011;55732;52.248;-0.844;2023-03-23T08:17:52;13.10;;;4.80;;
62925;SDS011;55732;52.248;-0.844;2023-03-23T08:20:18;11.80;;;4.10;;
62925;SDS011;55732;52.248;-0.844;2023-03-23T08:22:45;15.40;;;5.00;;
62925;SDS011;55732;52.248;-0.844;2023-03-23T08:25:14;16.30;;;5.00;;
62925;SDS011;55732;52.248;-0.844;2023-03-23T08:27:40;16.60;;;5.80;;
62925;SDS011;55732;52.248;-0.844;2023-03-23T08:30:12;15.70;;;5.40;;
62925;SDS011;55732;52.248;-0.844;2023-03-23T08:32:44;17.30;;;5.40;;
62925;SDS011;55732;52.248;-0.844;2023-03-23T08:35:10;18.50;;;5.20;;
62925;SDS011;55732;52.248;-0.844;2023-03-23T08:37:38;18.60;;;5.10;;
62925;SDS011;55732;52.248;-0.844;2023-03-23T08:40:04;14.00;;;5.30;;
62925;SDS011;55732;52.248;-0.844;2023-03-23T08:42:41;14.80;;;4.60;;
62925;SDS011;55732;52.248;-0.844;2023-03-23T08:45:09;16.60;;;5.00;;
62925;SDS011;55732;52.248;-0.844;2023-03-23T08:47:36;16.50;;;5.10;;
62925;SDS011;55732;52.248;-0.844;2023-03-23T08:50:03;16.60;;;5.00;;
62925;SDS011;55732;52.248;-0.844;2023-03-23T08:52:31;17.30;;;4.70;;
62925;SDS011;55732;52.248;-0.844;2023-03-23T08:54:56;18.90;;;5.30;;
62925;SDS011;55732;52.248;-0.844;2023-03-23T08:57:23;18.90;;;5.40;;
62925;SDS011;55732;52.248;-0.844;2023-03-23T09:02:16;15.50;;;4.50;;
62925;SDS011;55732;52.248;-0.844;2023-03-23T09:04:42;23.70;;;4.70;;
62925;SDS011;55732;52.248;-0.844;2023-03-23T09:07:11;19.60;;;4.90;;
62925;SDS011;55732;52.248;-0.844;2023-03-23T09:09:40;15.10;;;4.20;;
62925;SDS011;55732;52.248;-0.844;2023-03-23T09:12:06;18.20;;;4.20;;
62925;SDS011;55732;52.248;-0.844;2023-03-23T09:14:33;16.00;;;3.70;;
62925;SDS011;55732;52.248;-0.844;2023-03-23T09:17:00;18.60;;;4.70;;
62925;SDS011;55732;52.248;-0.844;2023-03-23T09:19:28;14.50;;;4.10;;
62925;SDS011;55732;52.248;-0.844;2023-03-23T09:21:58;24.70;;;4.40;;
62925;SDS011;55732;52.248;-0.844;2023-03-23T09:24:25;19.00;;;3.90;;
62925;SDS011;55732;52.248;-0.844;2023-03-23T09:26:51;22.20;;;4.20;;
62925;SDS011;55732;52.248;-0.844;2023-03-23T09:29:17;16.30;;;3.70;;
62925;SDS011;55732;52.248;-0.844;2023-03-23T09:31:43;11.80;;;3.90;;
62925;SDS011;55732;52.248;-0.844;2023-03-23T09:34:12;15.10;;;3.90;;
62925;SDS011;55732;52.248;-0.844;2023-03-23T09:36:40;18.30;;;4.60;;
62925;SDS011;55732;52.248;-0.844;2023-03-23T09:39:06;13.20;;;3.40;;
62925;SDS011;55732;52.248;-0.844;2023-03-23T09:49:52;14.40;;;3.50;;
62925;SDS011;55732;52.248;-0.844;2023-03-23T09:52:22;14.10;;;3.90;;
62925;SDS011;55732;52.248;-0.844;2023-03-23T09:55:02;17.00;;;4.00;;
62925;SDS011;55732;52.248;-0.844;2023-03-23T09:57:37;11.00;;;3.30;;
62925;SDS011;55732;52.248;-0.844;2023-03-23T10:03:05;12.40;;;3.30;;
62925;SDS011;55732;52.248;-0.844;2023-03-23T10:05:40;18.70;;;4.00;;
62925;SDS011;55732;52.248;-0.844;2023-03-23T10:08:17;11.60;;;3.70;;
62925;SDS011;55732;52.248;-0.844;2023-03-23T10:16:15;14.10;;;3.70;;
62925;SDS011;55732;52.248;-0.844;2023-03-23T10:21:14;12.30;;;3.20;;
62925;SDS011;55732;52.248;-0.844;2023-03-23T10:23:59;11.50;;;3.30;;
62925;SDS011;55732;52.248;-0.844;2023-03-23T10:29:17;13.50;;;3.10;;
62925;SDS011;55732;52.248;-0.844;2023-03-23T10:31:59;19.30;;;4.20;;
62925;SDS011;55732;52.248;-0.844;2023-03-23T10:34:42;15.70;;;3.40;;
62925;SDS011;55732;52.248;-0.844;2023-03-23T10:39:41;10.70;;;3.10;;
62925;SDS011;55732;52.248;-0.844;2023-03-23T10:42:09;14.00;;;3.30;;
62925;SDS011;55732;52.248;-0.844;2023-03-23T10:44:35;10.20;;;3.50;;
62925;SDS011;55732;52.248;-0.844;2023-03-23T10:47:03;16.30;;;3.30;;
62925;SDS011;55732;52.248;-0.844;2023-03-23T10:49:44;14.60;;;4.20;;
62925;SDS011;55732;52.248;-0.844;2023-03-23T10:52:35;11.60;;;3.20;;
62925;SDS011;55732;52.248;-0.844;2023-03-23T10:57:34;12.30;;;3.00;;
62925;SDS011;55732;52.248;-0.844;2023-03-23T11:00:06;13.10;;;3.10;;
62925;SDS011;55732;52.248;-0.844;2023-03-23T11:05:35;13.00;;;2.90;;
62925;SDS011;55732;52.248;-0.844;2023-03-23T11:08:10;11.80;;;3.00;;
62925;SDS011;55732;52.248;-0.844;2023-03-23T11:13:32;13.70;;;3.20;;
62925;SDS011;55732;52.248;-0.844;2023-03-23T11:15:59;13.30;;;3.20;;
62925;SDS011;55732;52.248;-0.844;2023-03-23T11:18:36;8.10;;;2.50;;
62925;SDS011;55732;52.248;-0.844;2023-03-23T11:21:04;11.60;;;3.20;;
62925;SDS011;55732;52.248;-0.844;2023-03-23T11:23:33;13.60;;;3.30;;
62925;SDS011;55732;52.248;-0.844;2023-03-23T11:29:10;10.00;;;3.00;;
62925;SDS011;55732;52.248;-0.844;2023-03-23T11:31:45;12.60;;;3.30;;
62925;SDS011;55732;52.248;-0.844;2023-03-23T11:34:20;12.50;;;3.20;;
62925;SDS011;55732;52.248;-0.844;2023-03-23T11:39:32;10.20;;;3.00;;
62925;SDS011;55732;52.248;-0.844;2023-03-23T11:42:12;13.10;;;3.30;;
62925;SDS011;55732;52.248;-0.844;2023-03-23T11:44:44;12.30;;;2.90;;
62925;SDS011;55732;52.248;-0.844;2023-03-23T11:47:23;11.50;;;2.60;;
62925;SDS011;55732;52.248;-0.844;2023-03-23T11:55:28;6.90;;;2.50;;
62925;SDS011;55732;52.248;-0.844;2023-03-23T11:58:02;11.60;;;2.10;;
62925;SDS011;55732;52.248;-0.844;2023-03-23T12:00:36;5.70;;;1.80;;
62925;SDS011;55732;52.248;-0.844;2023-03-23T12:06:02;9.50;;;2.20;;
62925;SDS011;55732;52.248;-0.844;2023-03-23T12:22:16;11.90;;;2.50;;
62925;SDS011;55732;52.248;-0.844;2023-03-23T12:25:08;7.70;;;2.60;;
62925;SDS011;55732;52.248;-0.844;2023-03-23T12:27:44;8.10;;;2.30;;
62925;SDS011;55732;52.248;-0.844;2023-03-23T12:30:15;7.30;;;2.60;;
62925;SDS011;55732;52.248;-0.844;2023-03-23T12:33:11;8.70;;;2.50;;
62925;SDS011;55732;52.248;-0.844;2023-03-23T12:36:11;11.90;;;2.80;;
62925;SDS011;55732;52.248;-0.844;2023-03-23T12:43:57;13.10;;;3.10;;
62925;SDS011;55732;52.248;-0.844;2023-03-23T12:51:42;9.00;;;3.20;;
62925;SDS011;55732;52.248;-0.844;2023-03-23T12:54:19;12.20;;;3.00;;
62925;SDS011;55732;52.248;-0.844;2023-03-23T12:57:20;12.60;;;3.20;;
62925;SDS011;55732;52.248;-0.844;2023-03-23T13:04:51;15.30;;;3.10;;
62925;SDS011;55732;52.248;-0.844;2023-03-23T13:07:26;13.40;;;3.50;;
62925;SDS011;55732;52.248;-0.844;2023-03-23T13:09:58;11.70;;;3.10;;
62925;SDS011;55732;52.248;-0.844;2023-03-23T13:12:25;14.00;;;3.40;;
62925;SDS011;55732;52.248;-0.844;2023-03-23T13:23:10;15.00;;;3.90;;
62925;SDS011;55732;52.248;-0.844;2023-03-23T13:28:20;12.00;;;4.00;;
62925;SDS011;55732;52.248;-0.844;2023-03-23T13:30:54;14.20;;;4.20;;
62925;SDS011;55732;52.248;-0.844;2023-03-23T13:33:21;17.80;;;3.90;;
62925;SDS011;55732;52.248;-0.844;2023-03-23T13:35:48;16.50;;;3.40;;
62925;SDS011;55732;52.248;-0.844;2023-03-23T13:38:19;16.60;;;3.40;;
62925;SDS011;55732;52.248;-0.844;2023-03-23T13:40:49;13.80;;;3.20;;
62925;SDS011;55732;52.248;-0.844;2023-03-23T13:43:24;16.80;;;4.00;;
62925;SDS011;55732;52.248;-0.844;2023-03-23T13:45:55;17.40;;;3.90;;
62925;SDS011;55732;52.248;-0.844;2023-03-23T13:48:39;16.70;;;4.10;;
62925;SDS011;55732;52.248;-0.844;2023-03-23T13:51:23;17.00;;;3.50;;
62925;SDS011;55732;52.248;-0.844;2023-03-23T13:54:03;17.00;;;3.70;;
62925;SDS011;55732;52.248;-0.844;2023-03-23T13:59:05;12.70;;;4.10;;
62925;SDS011;55732;52.248;-0.844;2023-03-23T14:02:44;16.40;;;4.10;;
62925;SDS011;55732;52.248;-0.844;2023-03-23T14:04:55;17.00;;;3.80;;
62925;SDS011;55732;52.248;-0.844;2023-03-23T14:07:21;17.00;;;4.20;;
62925;SDS011;55732;52.248;-0.844;2023-03-23T14:12:19;20.30;;;4.20;;
62925;SDS011;55732;52.248;-0.844;2023-03-23T14:14:48;13.50;;;3.20;;
62925;SDS011;55732;52.248;-0.844;2023-03-23T14:19:53;13.80;;;3.60;;
62925;SDS011;55732;52.248;-0.844;2023-03-23T14:22:23;12.70;;;3.40;;
62925;SDS011;55732;52.248;-0.844;2023-03-23T14:24:53;17.30;;;3.40;;
62925;SDS011;55732;52.248;-0.844;2023-03-23T14:27:34;13.60;;;3.10;;
62925;SDS011;55732;52.248;-0.844;2023-03-23T14:30:00;15.50;;;3.80;;
62925;SDS011;55732;52.248;-0.844;2023-03-23T14:32:29;11.40;;;3.90;;
62925;SDS011;55732;52.248;-0.844;2023-03-23T14:34:57;14.10;;;3.70;;
62925;SDS011;55732;52.248;-0.844;2023-03-23T14:37:24;13.40;;;3.50;;
62925;SDS011;55732;52.248;-0.844;2023-03-23T14:39:54;16.00;;;4.10;;
62925;SDS011;55732;52.248;-0.844;2023-03-23T14:42:23;13.50;;;3.30;;
62925;SDS011;55732;52.248;-0.844;2023-03-23T14:45:01;13.70;;;3.90;;
62925;SDS011;55732;52.248;-0.844;2023-03-23T14:47:31;13.40;;;3.20;;
62925;SDS011;55732;52.248;-0.844;2023-03-23T14:50:05;14.30;;;3.70;;
62925;SDS011;55732;52.248;-0.844;2023-03-23T14:52:43;15.30;;;3.40;;
62925;SDS011;55732;52.248;-0.844;2023-03-23T14:55:14;15.00;;;4.00;;
62925;SDS011;55732;52.248;-0.844;2023-03-23T14:57:43;14.50;;;3.60;;
62925;SDS011;55732;52.248;-0.844;2023-03-23T15:00:33;13.30;;;3.50;;
62925;SDS011;55732;52.248;-0.844;2023-03-23T15:02:58;18.70;;;4.40;;
62925;SDS011;55732;52.248;-0.844;2023-03-23T15:05:27;16.00;;;4.00;;
62925;SDS011;55732;52.248;-0.844;2023-03-23T15:08:00;13.90;;;3.50;;
62925;SDS011;55732;52.248;-0.844;2023-03-23T15:13:57;11.80;;;3.40;;
62925;SDS011;55732;52.248;-0.844;2023-03-23T15:16:30;16.30;;;5.10;;
62925;SDS011;55732;52.248;-0.844;2023-03-23T15:18:58;21.00;;;3.70;;
62925;SDS011;55732;52.248;-0.844;2023-03-23T15:21:31;14.80;;;3.20;;
62925;SDS011;55732;52.248;-0.844;2023-03-23T15:24:03;10.60;;;3.00;;
62925;SDS011;55732;52.248;-0.844;2023-03-23T15:26:51;21.50;;;4.10;;
62925;SDS011;55732;52.248;-0.844;2023-03-23T15:29:21;28.00;;;5.60;;
62925;SDS011;55732;52.248;-0.844;2023-03-23T15:31:53;19.70;;;4.30;;
62925;SDS011;55732;52.248;-0.844;2023-03-23T15:34:24;18.50;;;3.90;;
62925;SDS011;55732;52.248;-0.844;2023-03-23T15:36:57;11.90;;;3.80;;
62925;SDS011;55732;52.248;-0.844;2023-03-23T15:39:25;17.60;;;4.20;;
62925;SDS011;55732;52.248;-0.844;2023-03-23T15:41:52;14.50;;;3.60;;
62925;SDS011;55732;52.248;-0.844;2023-03-23T15:44:20;16.50;;;3.90;;
62925;SDS011;55732;52.248;-0.844;2023-03-23T15:47:10;10.90;;;3.80;;
62925;SDS011;55732;52.248;-0.844;2023-03-23T15:49:40;14.90;;;3.20;;
62925;SDS011;55732;52.248;-0.844;2023-03-23T15:52:08;14.90;;;3.80;;
62925;SDS011;55732;52.248;-0.844;2023-03-23T15:54:36;16.50;;;3.40;;
62925;SDS011;55732;52.248;-0.844;2023-03-23T15:57:02;14.90;;;3.80;;
62925;SDS011;55732;52.248;-0.844;2023-03-23T15:59:27;21.40;;;4.50;;
62925;SDS011;55732;52.248;-0.844;2023-03-23T16:01:52;19.30;;;4.20;;
62925;SDS011;55732;52.248;-0.844;2023-03-23T16:04:18;15.90;;;3.80;;
62925;SDS011;55732;52.248;-0.844;2023-03-23T16:06:45;10.90;;;3.30;;
62925;SDS011;55732;52.248;-0.844;2023-03-23T16:09:12;14.30;;;3.70;;
62925;SDS011;55732;52.248;-0.844;2023-03-23T16:11:40;17.70;;;3.50;;
62925;SDS011;55732;52.248;-0.844;2023-03-23T16:14:06;11.70;;;3.00;;
62925;SDS011;55732;52.248;-0.844;2023-03-23T16:16:33;14.10;;;3.60;;
62925;SDS011;55732;52.248;-0.844;2023-03-23T16:19:01;13.80;;;3.40;;
62925;SDS011;55732;52.248;-0.844;2023-03-23T16:21:27;15.30;;;3.30;;
62925;SDS011;55732;52.248;-0.844;2023-03-23T16:23:52;15.10;;;3.60;;
62925;SDS011;55732;52.248;-0.844;2023-03-23T16:26:18;15.60;;;3.90;;
62925;SDS011;55732;52.248;-0.844;2023-03-23T16:28:43;13.00;;;3.20;;
62925;SDS011;55732;52.248;-0.844;2023-03-23T16:31:09;13.40;;;2.90;;
62925;SDS011;55732;52.248;-0.844;2023-03-23T16:33:35;14.80;;;3.40;;
62925;SDS011;55732;52.248;-0.844;2023-03-23T16:36:01;11.30;;;3.30;;
62925;SDS011;55732;52.248;-0.844;2023-03-23T16:38:27;11.20;;;3.70;;
62925;SDS011;55732;52.248;-0.844;2023-03-23T16:40:53;17.10;;;3.90;;
62925;SDS011;55732;52.248;-0.844;2023-03-23T16:43:19;15.30;;;3.90;;
62925;SDS011;55732;52.248;-0.844;2023-03-23T16:45:45;15.20;;;3.90;;
62925;SDS011;55732;52.248;-0.844;2023-03-23T16:48:12;12.40;;;3.60;;
62925;SDS011;55732;52.248;-0.844;2023-03-23T16:50:40;12.00;;;3.20;;
62925;SDS011;55732;52.248;-0.844;2023-03-23T16:53:07;11.80;;;3.10;;
62925;SDS011;55732;52.248;-0.844;2023-03-23T16:55:33;14.10;;;3.70;;